createdAt,value
2018-09-20T00:00:38.898Z,0
2018-09-20T00:01:19.257Z,0
2018-09-20T00:01:59.662Z,0
2018-09-20T00:02:40.085Z,0
2018-09-20T00:03:20.465Z,0
2018-09-20T00:04:01.017Z,0
2018-09-20T00:04:41.455Z,0
2018-09-20T00:05:21.852Z,0
2018-09-20T00:06:02.246Z,0
2018-09-20T00:06:42.679Z,0
2018-09-20T00:07:23.052Z,0
2018-09-20T00:08:03.538Z,0
2018-09-20T00:08:43.891Z,0
2018-09-20T00:09:24.314Z,0
2018-09-20T00:10:04.719Z,0
2018-09-20T00:10:45.141Z,0
2018-09-20T00:11:25.496Z,0
2018-09-20T00:12:05.944Z,0
2018-09-20T00:12:46.302Z,0
2018-09-20T00:13:26.773Z,0
2018-09-20T00:14:07.108Z,0
2018-09-20T00:14:47.526Z,0
2018-09-20T00:15:27.976Z,0
2018-09-20T00:16:08.298Z,0
2018-09-20T00:16:48.685Z,0
2018-09-20T00:19:27.493Z,0
2018-09-20T00:20:07.908Z,0
2018-09-20T00:20:48.387Z,0
2018-09-20T00:21:28.757Z,0
2018-09-20T00:22:09.214Z,0
2018-09-20T00:22:49.603Z,0
2018-09-20T00:23:29.989Z,0
2018-09-20T00:24:10.494Z,0
2018-09-20T00:24:50.733Z,0
2018-09-20T00:25:31.204Z,0
2018-09-20T00:26:11.620Z,0
2018-09-20T00:26:52.016Z,0
2018-09-20T00:27:32.396Z,0
2018-09-20T00:28:12.800Z,0
2018-09-20T00:28:53.197Z,0
2018-09-20T00:29:33.675Z,0
2018-09-20T00:30:14.041Z,0
2018-09-20T00:30:54.446Z,0
2018-09-20T00:31:34.801Z,0
2018-09-20T00:32:15.290Z,0
2018-09-20T00:32:55.715Z,0
2018-09-20T00:33:36.038Z,0
2018-09-20T00:34:16.649Z,0
2018-09-20T00:34:56.973Z,0
2018-09-20T00:35:37.258Z,0
2018-09-20T00:36:17.701Z,0
2018-09-20T00:36:58.043Z,0
2018-09-20T00:37:38.453Z,0
2018-09-20T00:38:18.863Z,0
2018-09-20T00:38:59.245Z,0
2018-09-20T00:39:39.733Z,0
2018-09-20T00:40:20.056Z,0
2018-09-20T00:41:00.483Z,0
2018-09-20T00:41:40.941Z,0
2018-09-20T00:42:21.323Z,0
2018-09-20T00:43:01.757Z,0
2018-09-20T00:43:42.197Z,0
2018-09-20T00:44:22.605Z,0
2018-09-20T00:45:02.940Z,0
2018-09-20T00:45:43.349Z,0
2018-09-20T00:46:23.774Z,0
2018-09-20T00:47:04.170Z,0
2018-09-20T00:47:44.590Z,0
2018-09-20T00:48:24.975Z,0
2018-09-20T00:49:05.448Z,0
2018-09-20T00:49:45.793Z,0
2018-09-20T00:50:26.211Z,0
2018-09-20T00:51:06.630Z,0
2018-09-20T00:51:47.035Z,0
2018-09-20T00:52:27.422Z,0
2018-09-20T00:53:07.837Z,0
2018-09-20T00:53:48.239Z,0
2018-09-20T00:54:28.659Z,0
2018-09-20T00:55:09.053Z,0
2018-09-20T00:55:49.582Z,0
2018-09-20T00:58:23.402Z,0
2018-09-20T00:59:03.819Z,0
2018-09-20T00:59:44.230Z,0
2018-09-20T01:00:24.645Z,0
2018-09-20T01:01:05.101Z,0
2018-09-20T01:01:45.431Z,0
2018-09-20T01:02:25.872Z,0
2018-09-20T01:03:06.309Z,0
2018-09-20T01:03:46.732Z,0
2018-09-20T01:04:27.159Z,0
2018-09-20T01:05:07.583Z,0
2018-09-20T01:05:47.996Z,0
2018-09-20T01:06:28.384Z,0
2018-09-20T01:07:08.783Z,0
2018-09-20T01:07:49.185Z,0
2018-09-20T01:08:29.619Z,0
2018-09-20T01:09:10.041Z,0
2018-09-20T01:09:50.434Z,0
2018-09-20T01:10:30.842Z,0
2018-09-20T01:11:11.241Z,0
2018-09-20T01:11:51.684Z,0
2018-09-20T01:12:32.065Z,0
2018-09-20T01:13:12.488Z,0
2018-09-20T01:13:52.891Z,0
2018-09-20T01:14:33.284Z,0
2018-09-20T01:15:13.690Z,0
2018-09-20T01:15:54.122Z,0
2018-09-20T01:16:34.509Z,0
2018-09-20T01:17:14.951Z,0
2018-09-20T01:17:55.338Z,0
2018-09-20T01:18:35.753Z,0
2018-09-20T01:19:16.158Z,0
2018-09-20T01:19:56.543Z,0
2018-09-20T01:20:36.940Z,0
2018-09-20T01:21:17.331Z,0
2018-09-20T01:21:57.730Z,0
2018-09-20T01:22:38.131Z,0
2018-09-20T01:23:18.536Z,0
2018-09-20T01:23:58.985Z,0
2018-09-20T01:24:39.348Z,0
2018-09-20T01:25:19.739Z,0
2018-09-20T01:26:00.224Z,0
2018-09-20T01:26:40.575Z,0
2018-09-20T01:27:21.030Z,0
2018-09-20T01:28:01.379Z,0
2018-09-20T01:28:41.792Z,0
2018-09-20T01:29:22.210Z,0
2018-09-20T01:30:02.589Z,0
2018-09-20T01:33:34.397Z,0
2018-09-20T01:34:14.799Z,0
2018-09-20T01:34:55.190Z,0
2018-09-20T01:35:35.708Z,0
2018-09-20T01:36:16.025Z,0
2018-09-20T01:36:56.497Z,0
2018-09-20T01:37:36.871Z,0
2018-09-20T01:38:17.346Z,0
2018-09-20T01:38:57.691Z,0
2018-09-20T01:39:38.143Z,0
2018-09-20T01:40:18.582Z,0
2018-09-20T01:40:59.011Z,0
2018-09-20T01:41:39.403Z,0
2018-09-20T01:42:19.802Z,0
2018-09-20T01:43:00.155Z,0
2018-09-20T01:43:40.580Z,0
2018-09-20T01:46:14.848Z,0
2018-09-20T01:46:55.243Z,0
2018-09-20T01:49:33.114Z,0
2018-09-20T01:50:13.519Z,0
2018-09-20T01:50:53.924Z,0
2018-09-20T01:51:34.381Z,0
2018-09-20T01:52:14.760Z,0
2018-09-20T01:54:35.866Z,0
2018-09-20T01:55:16.268Z,0
2018-09-20T01:55:56.665Z,0
2018-09-20T01:56:37.097Z,0
2018-09-20T01:57:17.431Z,0
2018-09-20T01:57:57.847Z,0
2018-09-20T01:58:38.247Z,0
2018-09-20T01:59:18.660Z,0
2018-09-20T01:59:59.067Z,0
2018-09-20T02:00:39.473Z,0
2018-09-20T02:01:19.876Z,0
2018-09-20T02:02:00.324Z,0
2018-09-20T02:02:40.704Z,0
2018-09-20T02:03:21.049Z,0
2018-09-20T02:04:01.476Z,0
2018-09-20T02:04:41.861Z,0
2018-09-20T02:05:22.277Z,0
2018-09-20T02:07:49.984Z,0
2018-09-20T02:08:30.394Z,0
2018-09-20T02:09:10.791Z,0
2018-09-20T02:09:51.188Z,0
2018-09-20T02:10:31.591Z,0
2018-09-20T02:11:12.039Z,0
2018-09-20T02:11:52.419Z,0
2018-09-20T02:12:32.839Z,0
2018-09-20T02:13:13.231Z,0
2018-09-20T02:13:53.679Z,0
2018-09-20T02:14:34.073Z,0
2018-09-20T02:15:14.462Z,0
2018-09-20T02:15:54.867Z,0
2018-09-20T02:16:35.268Z,0
2018-09-20T02:17:15.657Z,0
2018-09-20T02:17:56.066Z,0
2018-09-20T02:18:37.037Z,0
2018-09-20T02:19:24.388Z,0
2018-09-20T02:20:04.800Z,0
2018-09-20T02:20:45.225Z,0
2018-09-20T02:21:25.598Z,0
2018-09-20T02:22:05.995Z,0
2018-09-20T02:22:46.393Z,0
2018-09-20T02:23:26.793Z,0
2018-09-20T02:24:07.221Z,0
2018-09-20T02:24:47.664Z,0
2018-09-20T02:25:28.091Z,0
2018-09-20T02:26:08.483Z,0
2018-09-20T02:26:48.908Z,0
2018-09-20T02:27:29.294Z,0
2018-09-20T02:28:09.701Z,0
2018-09-20T02:28:50.110Z,0
2018-09-20T02:29:30.542Z,0
2018-09-20T02:30:10.902Z,0
2018-09-20T02:30:51.305Z,0
2018-09-20T02:31:31.735Z,0
2018-09-20T02:32:12.133Z,0
2018-09-20T02:32:52.560Z,0
2018-09-20T02:33:32.977Z,0
2018-09-20T02:34:13.394Z,0
2018-09-20T02:34:53.848Z,0
2018-09-20T02:35:34.190Z,0
2018-09-20T02:36:14.622Z,0
2018-09-20T02:36:55.006Z,0
2018-09-20T02:37:35.431Z,0
2018-09-20T02:38:15.841Z,0
2018-09-20T02:38:56.227Z,0
2018-09-20T02:39:36.638Z,0
2018-09-20T02:40:17.025Z,0
2018-09-20T02:40:57.436Z,0
2018-09-20T02:41:37.874Z,0
2018-09-20T02:42:18.267Z,0
2018-09-20T02:42:58.656Z,0
2018-09-20T02:43:39.121Z,0
2018-09-20T02:44:19.539Z,0
2018-09-20T02:44:59.941Z,0
2018-09-20T02:45:40.299Z,0
2018-09-20T02:46:20.723Z,0
2018-09-20T02:47:01.168Z,0
2018-09-20T02:49:20.767Z,0
2018-09-20T02:50:01.210Z,0
2018-09-20T02:50:41.634Z,0
2018-09-20T02:51:22.080Z,0
2018-09-20T02:52:02.457Z,0
2018-09-20T02:52:42.875Z,0
2018-09-20T02:53:23.279Z,0
2018-09-20T02:54:03.700Z,0
2018-09-20T02:54:44.072Z,0
2018-09-20T02:55:24.489Z,0
2018-09-20T02:56:04.919Z,0
2018-09-20T02:56:45.291Z,0
2018-09-20T02:57:25.781Z,0
2018-09-20T02:58:06.135Z,0
2018-09-20T02:58:46.568Z,0
2018-09-20T02:59:26.934Z,0
2018-09-20T03:00:07.350Z,0
2018-09-20T03:00:47.799Z,0
2018-09-20T03:01:28.225Z,0
2018-09-20T03:02:08.645Z,0
2018-09-20T03:05:52.699Z,0
2018-09-20T03:06:33.084Z,0
2018-09-20T03:07:13.499Z,0
2018-09-20T03:07:53.881Z,0
2018-09-20T03:08:34.295Z,0
2018-09-20T03:09:14.801Z,0
2018-09-20T03:09:55.106Z,0
2018-09-20T03:10:35.516Z,0
2018-09-20T03:11:15.916Z,0
2018-09-20T03:11:56.349Z,0
2018-09-20T03:12:36.712Z,0
2018-09-20T03:13:17.181Z,0
2018-09-20T03:13:57.574Z,0
2018-09-20T03:14:37.953Z,0
2018-09-20T03:15:18.408Z,0
2018-09-20T03:15:58.833Z,0
2018-09-20T03:16:39.266Z,0
2018-09-20T03:17:19.688Z,0
2018-09-20T03:18:00.129Z,0
2018-09-20T03:21:21.709Z,0
2018-09-20T03:22:02.109Z,0
2018-09-20T03:22:42.486Z,0
2018-09-20T03:23:22.934Z,0
2018-09-20T03:24:03.301Z,0
2018-09-20T03:24:43.705Z,0
2018-09-20T03:25:24.109Z,0
2018-09-20T03:26:04.526Z,0
2018-09-20T03:26:44.937Z,0
2018-09-20T03:30:24.951Z,0
2018-09-20T03:31:05.168Z,0
2018-09-20T03:31:45.573Z,0
2018-09-20T03:32:25.988Z,0
2018-09-20T03:33:06.334Z,0
2018-09-20T03:33:46.740Z,0
2018-09-20T03:34:27.196Z,0
2018-09-20T03:35:07.581Z,0
2018-09-20T03:35:47.963Z,0
2018-09-20T03:36:28.360Z,0
2018-09-20T03:37:08.801Z,0
2018-09-20T03:37:49.275Z,0
2018-09-20T03:38:29.660Z,0
2018-09-20T03:39:10.011Z,0
2018-09-20T03:39:50.443Z,0
2018-09-20T03:40:30.819Z,0
2018-09-20T03:41:11.227Z,0
2018-09-20T03:41:51.629Z,0
2018-09-20T03:42:32.065Z,0
2018-09-20T03:43:12.417Z,0
2018-09-20T03:43:52.849Z,0
2018-09-20T03:44:33.234Z,0
2018-09-20T03:45:13.683Z,0
2018-09-20T03:45:54.046Z,0
2018-09-20T03:46:34.444Z,0
2018-09-20T03:47:14.835Z,0
2018-09-20T03:47:55.278Z,0
2018-09-20T03:50:34.957Z,0
2018-09-20T03:51:15.332Z,0
2018-09-20T03:51:55.730Z,0
2018-09-20T03:52:36.220Z,0
2018-09-20T03:53:16.628Z,0
2018-09-20T03:53:56.993Z,0
2018-09-20T03:54:37.448Z,0
2018-09-20T03:55:17.779Z,0
2018-09-20T03:55:58.206Z,0
2018-09-20T03:56:38.651Z,0
2018-09-20T03:57:19.092Z,0
2018-09-20T03:57:59.419Z,0
2018-09-20T03:58:39.857Z,0
2018-09-20T03:59:20.252Z,0
2018-09-20T04:00:00.697Z,0
2018-09-20T04:00:41.045Z,0
2018-09-20T04:01:21.474Z,0
2018-09-20T04:02:01.883Z,0
2018-09-20T04:02:42.349Z,0
2018-09-20T04:03:23.054Z,0
2018-09-20T04:04:03.369Z,0
2018-09-20T04:04:43.816Z,0
2018-09-20T04:05:24.189Z,0
2018-09-20T04:06:04.599Z,0
2018-09-20T04:06:45.066Z,0
2018-09-20T04:07:25.497Z,0
2018-09-20T04:08:05.864Z,0
2018-09-20T04:08:46.513Z,0
2018-09-20T04:09:26.870Z,0
2018-09-20T04:10:07.248Z,0
2018-09-20T04:10:47.657Z,0
2018-09-20T04:11:28.043Z,0
2018-09-20T04:12:08.457Z,0
2018-09-20T04:12:48.870Z,0
2018-09-20T04:13:29.265Z,0
2018-09-20T04:14:09.691Z,0
2018-09-20T04:14:50.118Z,0
2018-09-20T04:15:33.726Z,0
2018-09-20T04:16:14.101Z,0
2018-09-20T04:16:54.506Z,0
2018-09-20T04:17:34.983Z,0
2018-09-20T04:18:15.317Z,0
2018-09-20T04:18:55.796Z,0
2018-09-20T04:19:36.143Z,0
2018-09-20T04:20:16.548Z,0
2018-09-20T04:20:56.974Z,0
2018-09-20T04:21:37.382Z,0
2018-09-20T04:22:17.842Z,0
2018-09-20T04:22:58.229Z,0
2018-09-20T04:23:38.592Z,0
2018-09-20T04:27:06.477Z,0
2018-09-20T05:08:45.704Z,0
2018-09-20T05:09:38.055Z,0
2018-09-20T05:10:30.948Z,0
2018-09-20T05:11:23.369Z,0
2018-09-20T05:12:15.881Z,0
2018-09-20T05:13:08.378Z,0
2018-09-20T05:14:01.505Z,0
2018-09-20T05:14:56.102Z,0
2018-09-20T05:15:49.588Z,0
2018-09-20T05:16:44.547Z,0
2018-09-20T05:17:38.712Z,0
2018-09-20T05:18:33.566Z,0
2018-09-20T05:19:27.621Z,0
2018-09-20T05:20:21.837Z,5
2018-09-20T05:21:15.241Z,5
2018-09-20T05:22:10.262Z,5
2018-09-20T05:23:04.888Z,5
2018-09-20T05:23:57.787Z,5
2018-09-20T05:24:50.180Z,5
2018-09-20T05:25:43.359Z,5
2018-09-20T05:26:35.815Z,5
2018-09-20T05:27:29.942Z,10
2018-09-20T05:28:22.481Z,10
2018-09-20T05:29:15.452Z,10
2018-09-20T05:30:07.837Z,10
2018-09-20T05:31:07.276Z,10
2018-09-20T05:32:00.911Z,10
2018-09-20T05:32:54.176Z,15
2018-09-20T05:33:48.796Z,15
2018-09-20T05:34:40.899Z,15
2018-09-20T05:35:33.805Z,25
2018-09-20T05:36:27.493Z,40
2018-09-20T05:37:10.553Z,60
2018-09-20T05:37:51.838Z,60
2018-09-20T05:38:32.781Z,65
2018-09-20T05:39:13.691Z,70
2018-09-20T05:39:54.138Z,75
2018-09-20T05:40:40.046Z,75
2018-09-20T05:41:20.491Z,80
2018-09-20T05:42:00.951Z,80
2018-09-20T05:42:41.805Z,85
2018-09-20T05:43:22.292Z,85
2018-09-20T05:44:23.944Z,75
2018-09-20T05:45:03.294Z,65
2018-09-20T05:45:43.854Z,70
2018-09-20T05:46:29.386Z,70
2018-09-20T06:14:17.123Z,295
2018-09-20T06:14:57.576Z,215
2018-09-20T06:15:37.976Z,210
2018-09-20T06:16:18.351Z,300
2018-09-20T06:16:58.731Z,330
2018-09-20T06:17:39.211Z,360
2018-09-20T06:18:19.533Z,340
2018-09-20T06:18:59.973Z,355
2018-09-20T06:19:40.344Z,415
2018-09-20T06:20:20.770Z,405
2018-09-20T06:21:01.318Z,410
2018-09-20T06:21:41.831Z,425
2018-09-20T06:22:22.116Z,435
2018-09-20T06:23:02.558Z,440
2018-09-20T06:23:43.019Z,430
2018-09-20T06:24:23.428Z,440
2018-09-20T06:25:03.930Z,460
2018-09-20T06:25:44.379Z,475
2018-09-20T06:26:24.791Z,480
2018-09-20T06:27:05.201Z,250
2018-09-20T06:27:45.663Z,335
2018-09-20T06:28:26.062Z,365
2018-09-20T06:29:06.429Z,365
2018-09-20T06:29:46.845Z,420
2018-09-20T06:30:27.303Z,450
2018-09-20T06:31:07.777Z,455
2018-09-20T06:31:48.195Z,450
2018-09-20T06:32:28.624Z,440
2018-09-20T06:33:09.041Z,420
2018-09-20T06:33:49.449Z,445
2018-09-20T06:34:29.898Z,405
2018-09-20T06:35:10.359Z,385
2018-09-20T06:35:51.114Z,380
2018-09-20T06:36:31.517Z,315
2018-09-20T06:37:11.980Z,215
2018-09-20T06:37:52.286Z,95
2018-09-20T06:38:32.719Z,85
2018-09-20T06:39:13.129Z,105
2018-09-20T06:39:53.596Z,110
2018-09-20T06:40:34.129Z,145
2018-09-20T06:41:15.219Z,145
2018-09-20T06:41:55.394Z,115
2018-09-20T06:42:36.105Z,65
2018-09-20T06:43:16.629Z,50
2018-09-20T06:43:57.005Z,45
2018-09-20T06:44:37.552Z,40
2018-09-20T06:45:17.951Z,40
2018-09-20T06:45:58.441Z,40
2018-09-20T06:46:38.851Z,40
2018-09-20T06:47:19.319Z,40
2018-09-20T06:48:00.510Z,40
2018-09-20T06:48:40.964Z,40
2018-09-20T06:49:21.355Z,45
2018-09-20T06:50:01.943Z,45
2018-09-20T06:50:42.635Z,45
2018-09-20T06:51:22.969Z,50
2018-09-20T06:52:03.508Z,55
2018-09-20T06:52:43.980Z,90
2018-09-20T06:53:24.636Z,60
2018-09-20T06:54:05.305Z,105
2018-09-20T06:54:45.739Z,50
2018-09-20T06:55:26.183Z,45
2018-09-20T06:56:06.879Z,95
2018-09-20T06:56:47.283Z,95
2018-09-20T06:57:27.812Z,55
2018-09-20T06:58:08.252Z,40
2018-09-20T06:58:48.669Z,50
2018-09-20T06:59:29.117Z,55
2018-09-20T07:00:09.560Z,45
2018-09-20T07:01:04.499Z,50
2018-09-20T07:03:37.306Z,50
2018-09-20T07:04:17.739Z,70
2018-09-20T07:04:58.192Z,60
2018-09-20T07:05:38.714Z,60
2018-09-20T07:08:00.579Z,65
2018-09-20T07:08:41.061Z,105
2018-09-20T07:09:21.490Z,75
2018-09-20T07:10:01.914Z,90
2018-09-20T07:10:42.288Z,105
2018-09-20T07:11:22.800Z,120
2018-09-20T07:12:03.229Z,80
2018-09-20T07:12:43.675Z,170
2018-09-20T07:13:24.079Z,80
2018-09-20T07:14:04.518Z,85
2018-09-20T07:14:45.002Z,145
2018-09-20T07:15:25.341Z,165
2018-09-20T07:16:05.727Z,95
2018-09-20T07:16:46.208Z,160
2018-09-20T07:17:26.748Z,90
2018-09-20T07:18:07.185Z,145
2018-09-20T07:18:47.577Z,85
2018-09-20T07:19:28.077Z,80
2018-09-20T07:20:08.477Z,75
2018-09-20T07:20:48.914Z,80
2018-09-20T07:21:29.546Z,75
2018-09-20T07:22:09.711Z,70
2018-09-20T07:22:50.187Z,70
2018-09-20T07:23:30.629Z,70
2018-09-20T07:24:11.176Z,70
2018-09-20T07:24:51.624Z,65
2018-09-20T07:25:32.548Z,65
2018-09-20T07:26:12.925Z,60
2018-09-20T07:26:53.515Z,60
2018-09-20T07:27:33.973Z,60
2018-09-20T07:28:14.472Z,60
2018-09-20T07:28:54.965Z,55
2018-09-20T07:29:35.344Z,55
2018-09-20T07:30:15.872Z,55
2018-09-20T07:30:56.616Z,50
2018-09-20T07:31:37.035Z,50
2018-09-20T07:32:17.673Z,45
2018-09-20T07:32:58.026Z,40
2018-09-20T07:33:38.446Z,40
2018-09-20T07:34:18.897Z,40
2018-09-20T07:34:59.290Z,40
2018-09-20T07:35:39.763Z,40
2018-09-20T07:36:20.195Z,40
2018-09-20T07:37:00.610Z,40
2018-09-20T07:37:41.001Z,45
2018-09-20T07:38:21.602Z,45
2018-09-20T07:39:01.976Z,45
2018-09-20T07:39:42.371Z,45
2018-09-20T07:40:22.812Z,45
2018-09-20T07:41:03.205Z,45
2018-09-20T07:41:43.591Z,50
2018-09-20T07:42:24.028Z,50
2018-09-20T07:43:04.548Z,50
2018-09-20T07:43:44.921Z,55
2018-09-20T07:44:25.332Z,60
2018-09-20T07:45:05.791Z,85
2018-09-20T07:45:46.309Z,90
2018-09-20T07:46:26.772Z,90
2018-09-20T07:47:07.215Z,90
2018-09-20T07:47:47.711Z,90
2018-09-20T07:48:28.157Z,95
2018-09-20T07:49:08.584Z,90
2018-09-20T07:49:49.026Z,95
2018-09-20T07:50:29.511Z,95
2018-09-20T07:51:10.024Z,95
2018-09-20T07:51:50.633Z,95
2018-09-20T07:52:31.086Z,95
2018-09-20T07:53:11.493Z,95
2018-09-20T07:53:51.925Z,95
2018-09-20T07:56:20.462Z,95
2018-09-20T07:57:00.920Z,95
2018-09-20T07:57:41.287Z,95
2018-09-20T07:58:21.713Z,95
2018-09-20T07:59:02.220Z,95
2018-09-20T07:59:42.759Z,95
2018-09-20T08:00:23.615Z,95
2018-09-20T08:01:05.078Z,95
2018-09-20T08:01:45.709Z,95
2018-09-20T08:02:26.580Z,100
2018-09-20T08:03:07.041Z,95
2018-09-20T08:03:48.251Z,95
2018-09-20T08:04:30.650Z,95
2018-09-20T08:05:10.652Z,95
2018-09-20T08:05:51.560Z,90
2018-09-20T08:06:33.282Z,90
2018-09-20T08:07:13.216Z,90
2018-09-20T08:07:54.009Z,90
2018-09-20T08:08:34.766Z,90
2018-09-20T08:09:16.158Z,90
2018-09-20T08:09:56.010Z,90
2018-09-20T08:10:36.697Z,90
2018-09-20T08:11:18.247Z,90
2018-09-20T08:11:58.696Z,90
2018-09-20T08:12:39.422Z,90
2018-09-20T08:13:20.606Z,90
2018-09-20T08:14:00.846Z,90
2018-09-20T08:14:42.656Z,90
2018-09-20T08:15:23.458Z,90
2018-09-20T08:16:04.304Z,90
2018-09-20T08:16:45.643Z,90
2018-09-20T08:17:26.214Z,90
2018-09-20T08:18:06.896Z,90
2018-09-20T08:18:48.135Z,90
2018-09-20T08:19:28.329Z,90
2018-09-20T08:20:10.790Z,90
2018-09-20T08:20:50.978Z,90
2018-09-20T08:21:31.425Z,90
2018-09-20T08:22:11.926Z,90
2018-09-20T08:22:52.777Z,90
2018-09-20T08:23:33.343Z,85
2018-09-20T08:24:15.243Z,85
2018-09-20T08:24:55.920Z,85
2018-09-20T08:25:37.491Z,85
2018-09-20T08:26:18.098Z,90
2018-09-20T08:26:58.328Z,100
2018-09-20T08:27:40.288Z,100
2018-09-20T08:28:21.611Z,100
2018-09-20T08:29:01.561Z,95
2018-09-20T08:29:42.352Z,90
2018-09-20T08:30:24.546Z,90
2018-09-20T08:31:05.705Z,90
2018-09-20T08:31:46.608Z,85
2018-09-20T08:32:27.095Z,85
2018-09-20T08:33:07.715Z,85
2018-09-20T08:33:48.263Z,85
2018-09-20T08:34:28.733Z,85
2018-09-20T08:35:10.081Z,85
2018-09-20T08:35:49.960Z,75
2018-09-20T08:36:30.475Z,90
2018-09-20T08:37:11.115Z,90
2018-09-20T08:37:52.821Z,90
2018-09-20T08:38:33.469Z,75
2018-09-20T08:39:14.288Z,80
2018-09-20T08:39:54.967Z,90
2018-09-20T08:40:35.441Z,85
2018-09-20T08:43:15.429Z,90
2018-09-20T08:43:56.843Z,75
2018-09-20T08:44:36.486Z,60
2018-09-20T08:45:16.986Z,60
2018-09-20T08:45:58.210Z,85
2018-09-20T08:46:37.882Z,80
2018-09-20T08:47:19.218Z,90
2018-09-20T08:47:59.815Z,90
2018-09-20T08:48:40.276Z,90
2018-09-20T08:49:21.042Z,65
2018-09-20T08:50:01.711Z,90
2018-09-20T08:50:43.014Z,85
2018-09-20T08:51:23.473Z,85
2018-09-20T08:52:03.928Z,85
2018-09-20T08:52:44.851Z,85
2018-09-20T08:53:25.404Z,85
2018-09-20T08:54:05.897Z,85
2018-09-20T08:54:47.237Z,90
2018-09-20T08:55:27.105Z,75
2018-09-20T08:56:08.034Z,90
2018-09-20T08:56:48.639Z,65
2018-09-20T08:57:29.074Z,95
2018-09-20T08:58:09.526Z,70
2018-09-20T08:58:50.068Z,90
2018-09-20T08:59:30.483Z,60
2018-09-20T09:00:10.929Z,60
2018-09-20T09:01:06.609Z,60
2018-09-20T09:01:47.079Z,60
2018-09-20T09:04:35.491Z,55
2018-09-20T09:05:15.914Z,55
2018-09-20T09:05:56.348Z,55
2018-09-20T09:06:37.392Z,55
2018-09-20T09:07:19.821Z,55
2018-09-20T09:08:00.288Z,55
2018-09-20T09:08:40.228Z,55
2018-09-20T09:09:20.740Z,50
2018-09-20T09:10:01.433Z,50
2018-09-20T09:10:42.821Z,50
2018-09-20T09:11:22.753Z,70
2018-09-20T09:12:04.494Z,75
2018-09-20T09:12:45.283Z,50
2018-09-20T09:13:25.026Z,50
2018-09-20T09:14:06.766Z,50
2018-09-20T09:14:47.781Z,50
2018-09-20T09:42:12.354Z,55
2018-09-20T09:42:52.758Z,70
2018-09-20T09:43:35.101Z,55
2018-09-20T09:44:15.707Z,55
2018-09-20T09:44:57.271Z,55
2018-09-20T09:45:38.792Z,55
2018-09-20T09:46:18.675Z,80
2018-09-20T09:46:59.671Z,80
2018-09-20T09:47:43.514Z,85
2018-09-20T09:48:24.348Z,85
2018-09-20T09:49:04.824Z,85
2018-09-20T09:49:45.696Z,85
2018-09-20T09:50:27.153Z,85
2018-09-20T09:51:08.242Z,85
2018-09-20T09:51:51.099Z,85
2018-09-20T09:52:31.785Z,85
2018-09-20T09:53:12.166Z,85
2018-09-20T09:53:53.692Z,85
2018-09-20T09:54:35.207Z,85
2018-09-20T09:55:22.928Z,80
2018-09-20T09:56:03.505Z,80
2018-09-20T09:56:44.355Z,80
2018-09-20T09:57:25.601Z,80
2018-09-20T09:58:10.187Z,75
2018-09-20T09:58:51.325Z,75
2018-09-20T09:59:31.625Z,75
2018-09-20T10:00:12.446Z,70
2018-09-20T10:00:53.553Z,70
2018-09-20T10:01:35.677Z,70
2018-09-20T10:02:16.069Z,70
2018-09-20T10:02:56.820Z,75
2018-09-20T10:03:37.565Z,70
2018-09-20T10:04:18.299Z,65
2018-09-20T10:04:59.548Z,70
2018-09-20T10:05:40.230Z,70
2018-09-20T10:06:20.753Z,70
2018-09-20T10:07:01.668Z,75
2018-09-20T10:07:42.335Z,80
2018-09-20T10:08:22.721Z,70
2018-09-20T10:09:03.106Z,65
2018-09-20T10:09:43.529Z,60
2018-09-20T10:10:24.074Z,65
2018-09-20T10:11:04.406Z,75
2018-09-20T10:11:45.381Z,80
2018-09-20T10:12:27.026Z,75
2018-09-20T10:13:08.033Z,75
2018-09-20T10:13:50.795Z,80
2018-09-20T10:14:31.500Z,75
2018-09-20T10:15:12.967Z,75
2018-09-20T10:15:53.439Z,75
2018-09-20T10:16:35.147Z,75
2018-09-20T10:17:15.245Z,65
2018-09-20T10:17:55.667Z,65
2018-09-20T10:18:37.722Z,65
2018-09-20T10:19:18.652Z,65
2018-09-20T10:19:59.132Z,65
2018-09-20T10:20:39.979Z,70
2018-09-20T10:21:20.450Z,75
2018-09-20T10:22:02.727Z,75
2018-09-20T10:22:44.160Z,70
2018-09-20T10:23:26.754Z,70
2018-09-20T10:24:07.439Z,70
2018-09-20T10:24:48.407Z,70
2018-09-20T10:25:29.051Z,60
2018-09-20T10:26:09.844Z,60
2018-09-20T10:26:52.051Z,70
2018-09-20T10:27:32.626Z,70
2018-09-20T10:28:13.917Z,65
2018-09-20T10:28:57.177Z,65
2018-09-20T11:11:45.487Z,75
2018-09-20T11:12:43.436Z,75
2018-09-20T11:13:38.444Z,75
2018-09-20T11:14:39.723Z,70
2018-09-20T11:15:41.775Z,70
2018-09-20T11:16:39.684Z,65
2018-09-20T11:17:37.715Z,60
2018-09-20T11:18:46.422Z,55
2018-09-20T11:24:14.228Z,60
2018-09-20T11:50:39.620Z,45
2018-09-20T11:51:41.721Z,60
2018-09-20T11:52:46.034Z,60
2018-09-20T11:55:24.469Z,60
2018-09-20T11:56:05.031Z,60
2018-09-20T11:56:45.453Z,60
2018-09-20T11:57:25.936Z,60
2018-09-20T11:58:07.059Z,60
2018-09-20T11:58:47.595Z,55
2018-09-20T11:59:28.371Z,60
2018-09-20T12:00:09.491Z,60
2018-09-20T12:00:50.104Z,55
2018-09-20T12:01:30.777Z,55
2018-09-20T12:02:11.938Z,55
2018-09-20T12:02:53.282Z,55
2018-09-20T12:03:33.869Z,55
2018-09-20T12:04:15.217Z,55
2018-09-20T12:04:55.234Z,55
2018-09-20T12:05:36.012Z,55
2018-09-20T12:07:38.586Z,55
2018-09-20T12:08:19.516Z,55
2018-09-20T12:09:00.301Z,55
2018-09-20T12:09:41.564Z,55
2018-09-20T12:10:24.763Z,50
2018-09-20T12:11:05.483Z,50
2018-09-20T12:11:46.161Z,50
2018-09-20T12:12:27.771Z,50
2018-09-20T12:13:08.942Z,55
2018-09-20T12:13:50.207Z,55
2018-09-20T12:14:31.289Z,55
2018-09-20T12:15:12.351Z,55
2018-09-20T12:15:53.703Z,55
2018-09-20T12:16:34.700Z,55
2018-09-20T12:17:16.744Z,55
2018-09-20T12:17:57.955Z,55
2018-09-20T12:18:54.533Z,55
2018-09-20T12:19:35.051Z,55
2018-09-20T12:20:16.352Z,50
2018-09-20T12:20:58.189Z,50
2018-09-20T12:21:38.408Z,50
2018-09-20T12:22:19.724Z,50
2018-09-20T12:23:00.322Z,50
2018-09-20T12:23:51.419Z,50
2018-09-20T12:24:31.177Z,50
2018-09-20T12:25:13.413Z,50
2018-09-20T12:25:54.752Z,50
2018-09-20T12:26:35.434Z,55
2018-09-20T12:27:16.943Z,55
2018-09-20T12:27:58.076Z,55
2018-09-20T12:28:38.687Z,55
2018-09-20T12:29:19.024Z,55
2018-09-20T12:29:59.846Z,55
2018-09-20T12:30:40.289Z,55
2018-09-20T12:31:22.099Z,55
2018-09-20T12:32:03.134Z,55
2018-09-20T12:32:45.004Z,55
2018-09-20T12:33:27.253Z,55
2018-09-20T12:34:08.037Z,55
2018-09-20T12:34:48.621Z,55
2018-09-20T12:35:29.544Z,55
2018-09-20T12:36:10.261Z,55
2018-09-20T12:53:21.618Z,50
2018-09-20T12:59:15.243Z,50
2018-09-20T13:00:13.504Z,50
2018-09-20T13:01:26.486Z,50
2018-09-20T13:10:07.709Z,50
2018-09-20T13:11:23.014Z,50
2018-09-20T13:24:46.815Z,50
2018-09-20T13:25:28.536Z,50
2018-09-20T13:26:08.639Z,50
2018-09-20T13:26:50.099Z,50
2018-09-20T13:27:30.436Z,50
2018-09-20T13:28:12.167Z,50
2018-09-20T13:28:53.832Z,50
2018-09-20T13:29:35.330Z,50
2018-09-20T13:30:16.746Z,50
2018-09-20T13:30:57.920Z,50
2018-09-20T13:31:39.499Z,50
2018-09-20T13:32:21.226Z,50
2018-09-20T13:33:03.441Z,50
2018-09-20T13:33:43.985Z,50
2018-09-20T13:34:26.161Z,45
2018-09-20T13:35:05.917Z,50
2018-09-20T13:35:46.629Z,50
2018-09-20T13:36:28.074Z,45
2018-09-20T13:37:08.638Z,45
2018-09-20T13:37:49.931Z,50
2018-09-20T13:38:31.656Z,45
2018-09-20T13:39:12.044Z,45
2018-09-20T13:39:52.806Z,45
2018-09-20T13:40:33.619Z,45
2018-09-20T13:43:20.115Z,45
2018-09-20T13:44:28.331Z,45
2018-09-20T13:48:00.340Z,45
2018-09-20T13:49:05.949Z,45
2018-09-20T13:50:07.886Z,45
2018-09-20T13:59:57.312Z,50
2018-09-20T14:00:41.309Z,50
2018-09-20T14:01:22.049Z,50
2018-09-20T14:02:03.242Z,50
2018-09-20T14:02:43.738Z,50
2018-09-20T14:03:24.936Z,50
2018-09-20T14:04:05.771Z,50
2018-09-20T14:04:47.936Z,50
2018-09-20T14:05:29.925Z,50
2018-09-20T14:06:12.370Z,50
2018-09-20T14:06:54.820Z,50
2018-09-20T14:07:37.197Z,50
2018-09-20T14:08:17.894Z,50
2018-09-20T14:09:00.294Z,50
2018-09-20T14:09:41.797Z,50
2018-09-20T14:10:22.622Z,50
2018-09-20T14:11:03.916Z,50
2018-09-20T14:11:45.171Z,50
2018-09-20T14:12:28.802Z,50
2018-09-20T14:13:10.686Z,50
2018-09-20T14:13:51.533Z,50
2018-09-20T14:14:33.130Z,50
2018-09-20T14:15:14.239Z,50
2018-09-20T14:15:54.528Z,50
2018-09-20T14:16:36.062Z,50
2018-09-20T14:17:16.301Z,50
2018-09-20T14:17:56.246Z,50
2018-09-20T14:18:36.928Z,50
2018-09-20T14:19:20.936Z,50
2018-09-20T14:20:02.298Z,50
2018-09-20T14:20:42.409Z,50
2018-09-20T14:21:23.123Z,50
2018-09-20T14:22:03.815Z,50
2018-09-20T14:22:44.513Z,50
2018-09-20T14:23:26.991Z,50
2018-09-20T14:24:07.654Z,50
2018-09-20T14:24:48.809Z,50
2018-09-20T14:25:28.864Z,50
2018-09-20T14:26:09.200Z,50
2018-09-20T14:26:51.646Z,50
2018-09-20T14:27:32.397Z,50
2018-09-20T14:28:15.336Z,50